Weather reports worldwide

Advertisment
Grantley Adams, Grenada (78954): temperature & dewpoint: 13.11.2018 16:00:00 - 19.11.2018 16:00:00 (AST)Grantley Adams, Grenada (78954): wind speed: 13.11.2018 16:00:00 - 19.11.2018 16:00:00 (AST)Grantley Adams, Grenada (78954): wind direction: 13.11.2018 16:00:00 - 19.11.2018 16:00:00 (AST)Grantley Adams, Grenada (78954): visibility: 13.11.2018 16:00:00 - 19.11.2018 16:00:00 (AST)
Date & Time tt [°C] td [°C] ff [km/h] ff [kn] dd vv [km]
19.11.2018 16:00:00 28,0 23,0 34 18 E 10
19.11.2018 15:00:00 29,0 23,0 39 21 E 10
19.11.2018 14:00:00 30,0 23,0 37 20 E 10
19.11.2018 13:00:00 30,0 22,0 37 20 E 10
19.11.2018 12:00:00 30,0 23,0 37 20 E 10
19.11.2018 11:00:00 29,0 24,0 41 22 E 10
19.11.2018 10:00:00 27,0 24,0 26 14 ENE 6
19.11.2018 09:00:00 29,0 24,0 35 19 E 10
19.11.2018 08:00:00 28,0 23,0 35 19 E 10
19.11.2018 07:00:00 26,0 22,0 44 24 E 10
19.11.2018 06:00:00 26,0 22,0 39 21 E 10
19.11.2018 05:00:00 26,0 24,0 41 22 E 10
19.11.2018 04:00:00 26,0 24,0 29 16 E 10
19.11.2018 03:00:00 26,0 25,0 31 17 E 10
19.11.2018 02:00:00 26,0 24,0 28 15 E 10
19.11.2018 01:00:00 27,0 24,0 28 15 E 10
19.11.2018 00:00:00 27,0 24,0 26 14 E 10
18.11.2018 23:00:00 26,0 24,0 28 15 E 10
18.11.2018 22:00:00 27,0 23,0 24 13 E 10
18.11.2018 21:00:00 27,0 23,0 24 13 E 10
18.11.2018 20:00:00 27,0 22,0 26 14 E 10
18.11.2018 19:00:00 27,0 23,0 28 15 E 10
18.11.2018 18:00:00 27,0 24,0 24 13 E 10
18.11.2018 17:00:00 - - - - - -
18.11.2018 16:00:00 29,0 23,0 26 14 E 10
18.11.2018 15:00:00 30,0 23,0 29 16 E 10
18.11.2018 14:00:00 30,0 22,0 28 15 E 10
18.11.2018 13:00:00 30,0 23,0 29 16 E 10
18.11.2018 12:00:00 31,0 22,0 29 16 E 10
18.11.2018 11:00:00 30,0 23,0 34 18 E 10
18.11.2018 10:00:00 30,0 22,0 29 16 E 10
18.11.2018 09:00:00 29,0 20,0 26 14 E 10
18.11.2018 08:00:00 29,0 21,0 34 18 E 10
18.11.2018 07:00:00 27,0 21,0 34 18 E 10
18.11.2018 06:00:00 26,0 21,0 34 18 E 10
18.11.2018 05:00:00 27,0 22,0 31 17 E 10
18.11.2018 04:00:00 27,0 22,0 34 18 E 10
18.11.2018 03:00:00 27,0 22,0 34 18 E 10
18.11.2018 02:00:00 27,0 23,0 29 16 E 10
18.11.2018 01:00:00 26,0 22,0 28 15 E 10
18.11.2018 00:00:00 27,0 23,0 28 15 E 10
17.11.2018 23:00:00 25,0 23,0 26 14 ESE 10
17.11.2018 22:00:00 27,0 23,0 28 15 E 10
17.11.2018 21:00:00 27,0 24,0 26 14 E 10
17.11.2018 20:00:00 27,0 23,0 26 14 E 10
17.11.2018 19:00:00 26,0 22,0 31 17 E 10
17.11.2018 18:00:00 27,0 23,0 24 13 E 10
17.11.2018 17:00:00 28,0 23,0 26 14 E 10
17.11.2018 16:00:00 29,0 23,0 28 15 E 10
17.11.2018 15:00:00 30,0 23,0 34 18 E 10
17.11.2018 14:00:00 30,0 23,0 35 19 E 10
17.11.2018 13:00:00 30,0 23,0 34 18 E 10
17.11.2018 12:00:00 31,0 24,0 37 20 E 10
17.11.2018 11:00:00 31,0 24,0 34 18 E 10
17.11.2018 10:00:00 30,0 24,0 35 19 E 10
17.11.2018 09:00:00 30,0 24,0 35 19 E 10
17.11.2018 08:00:00 29,0 24,0 31 17 E 10
17.11.2018 07:00:00 28,0 23,0 35 19 E 10
17.11.2018 06:00:00 27,0 23,0 34 18 E 10
17.11.2018 05:00:00 27,0 24,0 31 17 E 10
17.11.2018 04:00:00 27,0 23,0 29 16 E 10
17.11.2018 03:00:00 26,0 24,0 29 16 E 10
17.11.2018 02:00:00 27,0 24,0 31 17 E 10
17.11.2018 01:00:00 27,0 24,0 29 16 E 10
17.11.2018 00:00:00 27,0 24,0 29 16 E 10
16.11.2018 23:00:00 27,0 24,0 35 19 E 10
16.11.2018 22:00:00 27,0 24,0 28 15 E 10
16.11.2018 21:00:00 27,0 24,0 29 16 E 10
16.11.2018 20:00:00 27,0 24,0 31 17 E 10
16.11.2018 19:00:00 27,0 23,0 28 15 E 10
16.11.2018 18:00:00 27,0 23,0 28 15 E 10
16.11.2018 17:00:00 28,0 23,0 31 17 E 10
16.11.2018 16:00:00 29,0 23,0 31 17 E 10
16.11.2018 15:00:00 30,0 23,0 34 18 E 10
16.11.2018 14:00:00 30,0 22,0 34 18 E 10
16.11.2018 13:00:00 30,0 24,0 35 19 E 10
16.11.2018 12:00:00 31,0 24,0 34 18 E 10
16.11.2018 11:00:00 30,0 24,0 34 18 E 10
16.11.2018 10:00:00 30,0 24,0 37 20 E 10
16.11.2018 09:00:00 29,0 23,0 37 20 E 10
16.11.2018 08:00:00 28,0 23,0 37 20 E 10
16.11.2018 07:00:00 28,0 23,0 34 18 E 10
16.11.2018 06:00:00 27,0 23,0 34 18 E 10
16.11.2018 05:00:00 27,0 23,0 35 19 E 10
16.11.2018 04:00:00 27,0 23,0 35 19 E 10
16.11.2018 03:00:00 26,0 24,0 26 14 E 10
16.11.2018 02:00:00 27,0 23,0 26 14 E 10
16.11.2018 01:00:00 27,0 23,0 31 17 E 10
16.11.2018 00:00:00 27,0 23,0 31 17 E 10
15.11.2018 23:00:00 27,0 23,0 28 15 E 10
15.11.2018 22:00:00 27,0 22,0 29 16 E 10
15.11.2018 21:00:00 27,0 22,0 28 15 E 10
15.11.2018 20:00:00 27,0 23,0 31 17 E 10
15.11.2018 19:00:00 27,0 22,0 29 16 E 10
15.11.2018 18:00:00 27,0 22,0 28 15 E 10
15.11.2018 17:00:00 27,0 22,0 28 15 E 10
15.11.2018 16:00:00 28,0 22,0 26 14 E 10
15.11.2018 15:00:00 28,0 22,0 29 16 E 10
15.11.2018 14:00:00 29,0 23,0 29 16 E 10
15.11.2018 13:00:00 29,0 23,0 29 16 E 10
15.11.2018 12:00:00 29,0 23,0 34 18 E 10
15.11.2018 11:00:00 29,0 23,0 29 16 E 10
15.11.2018 10:00:00 29,0 22,0 39 21 E 10
15.11.2018 09:00:00 29,0 23,0 41 22 E 10
15.11.2018 08:00:00 29,0 24,0 39 21 E 10
15.11.2018 07:00:00 28,0 23,0 41 22 E 10
15.11.2018 06:00:00 27,0 22,0 37 20 E 10
15.11.2018 05:00:00 27,0 23,0 34 18 E 10
15.11.2018 04:00:00 27,0 22,0 39 21 E 10
15.11.2018 03:00:00 27,0 23,0 35 19 E 10
15.11.2018 02:00:00 27,0 23,0 39 21 E 10
15.11.2018 01:00:00 27,0 23,0 39 21 E 10
15.11.2018 00:00:00 28,0 23,0 35 19 E 10
14.11.2018 23:00:00 27,0 23,0 34 18 E 10
14.11.2018 22:00:00 27,0 24,0 37 20 E 10
14.11.2018 21:00:00 27,0 24,0 35 19 E 10
14.11.2018 20:00:00 27,0 23,0 42 23 E 10
14.11.2018 19:00:00 27,0 24,0 39 21 E 10
14.11.2018 18:00:00 27,0 24,0 35 19 E 10
14.11.2018 17:00:00 25,0 24,0 44 24 E 10
14.11.2018 16:00:00 28,0 23,0 37 20 E 10
14.11.2018 15:00:00 29,0 23,0 37 20 E 10
14.11.2018 14:00:00 28,0 23,0 42 23 E 10
14.11.2018 13:00:00 30,0 23,0 39 21 E 10
14.11.2018 12:00:00 29,0 24,0 41 22 E 10
14.11.2018 11:00:00 30,0 24,0 42 23 E 10
14.11.2018 10:00:00 30,0 22,0 44 24 E 10
14.11.2018 09:00:00 29,0 23,0 41 22 E 10
14.11.2018 08:00:00 29,0 24,0 39 21 E 10
14.11.2018 07:00:00 28,0 23,0 37 20 E 10
14.11.2018 06:00:00 27,0 22,0 44 24 E 10
14.11.2018 05:00:00 28,0 24,0 39 21 ESE 10
14.11.2018 04:00:00 27,0 24,0 39 21 E 10
14.11.2018 03:00:00 27,0 24,0 37 20 E 10
14.11.2018 02:00:00 27,0 23,0 41 22 E 10
14.11.2018 01:00:00 28,0 24,0 39 21 E 10
14.11.2018 00:00:00 28,0 23,0 41 22 E 10
13.11.2018 23:00:00 28,0 23,0 41 22 E 10
13.11.2018 22:00:00 27,0 25,0 39 21 E 10
13.11.2018 21:00:00 28,0 24,0 39 21 E 10
13.11.2018 20:00:00 27,0 24,0 41 22 E 10
13.11.2018 19:00:00 28,0 25,0 35 19 E 10
13.11.2018 18:00:00 28,0 25,0 31 17 E 10
13.11.2018 17:00:00 28,0 24,0 29 16 E 10
13.11.2018 16:00:00 28,0 25,0 28 15 E 10

tt = temperature
td = dewpoint
ff = wind speed
dd = wind direction
vv = visibility

Next stations